x

West Bermuda - 240 Nm West Of Bermuda (41048) Wave Buoy

4:50pm - Fri 27th Mar 2015 All times are UTC.

  • Sig Wave height 8.5ft
  • Swell Direction
  • Peak Period 8s
  • Average Period 6s
  • Wind
    31mph, 36mph gusts
  • Sea Temp 69°f
  • Air Temp 71°f
  • Sea Pressure 1012.4mb

More Historic Weather Station data

Upgrade to MSW Pro to gain access to the past 30 days of data for over 8000 Wavebouys and Weather Stations around the globe.

Join Pro

Comparision Forecast

View Surf forecast
   
Fri 03/27 4:50pm 8.5ft 8s 6s 31 36 mph 1012.4mb 69f 71f
3:50pm 9ft 8s 6s 27 34 mph 1013.6mb 69f 71f
2:50pm 9ft 8s 6s 29 34 mph 1014.3mb 69f 71f
1:50pm 8ft 7s 6s 27 31 mph 1014.9mb 69f 69f
12:50pm 8ft 7s 6s 27 34 mph 1015.2mb 69f 69f
11:50am 8ft 7s 6s 25 31 mph 1015.7mb 69f 69f
10:50am 7ft 7s 6s 22 27 mph 1015.8mb 69f 70f
9:50am 7ft 7s 6s 25 29 mph 1016mb 69f 70f
8:50am 7ft 7s 5s 25 29 mph 1016.3mb 69f 70f
7:50am 6ft 7s 5s 25 29 mph 1016.6mb 69f 70f
6:50am 6.5ft 6s 5s 25 31 mph 1017.4mb 69f 69f
5:50am 6.5ft 7s 5s 25 29 mph 1018.1mb 69f 69f
4:50am 6ft 7s 5s 25 29 mph 1019mb 69f 69f
3:50am 6ft 6s 5s 27 31 mph 1019.7mb 69f 69f
2:50am 5.5ft 6s 5s 25 29 mph 1020.4mb 69f 69f
1:50am 5.5ft 6s 5s 25 29 mph 1020.9mb 69f 69f
12:50am 5ft 6s 5s 25 27 mph 1021.2mb 69f 68f
Thu 03/26 11:50pm 5ft 6s 5s 25 29 mph 1021.1mb 69f 68f
10:50pm 5ft 6s 5s 25 27 mph 1021.3mb 69f 68f
9:50pm 5ft 6s 5s 22 27 mph 1021.5mb 69f 67f
8:50pm 5ft 5s 5s 22 27 mph 1021.7mb 69f 67f
7:50pm 4.5ft 5s 5s 22 27 mph 1022mb 69f 67f
6:50pm 5ft 5s 5s 20 25 mph 1022.6mb 69f 67f
5:50pm 4.5ft 5s 5s 22 25 mph 1023.4mb 69f 67f
4:50pm 4.5ft 7s 5s 22 25 mph 1024.2mb 69f 67f
3:50pm 4.5ft 5s 5s 20 25 mph 1024.9mb 69f 67f
2:50pm 4.5ft 6s 5s 20 25 mph 1025.5mb 69f 67f
1:50pm 4.5ft 7s 5s 20 22 mph 1026mb 69f 66f
12:50pm 4.5ft 6s 5s 18 22 mph 1025.9mb 69f 67f
11:50am 4ft 6s 5s 16 18 mph 1025.9mb 69f 66f
10:50am 4.5ft 7s 5s 16 20 mph 1025.9mb 69f 66f
9:50am 4.5ft 5s 5s 18 20 mph 1025.7mb 69f 66f
8:50am 4.5ft 6s 5s 18 22 mph 1025.1mb 69f 66f
7:50am 4.5ft 6s 5s 18 22 mph 1025.5mb 69f 66f
6:50am 5ft 6s 5s 18 22 mph 1025.9mb 69f 66f
5:50am 4.5ft 7s 5s 16 20 mph 1026.5mb 69f 66f
4:50am 4.5ft 5s 5s 18 20 mph 1027mb 69f 66f
3:50am 4.5ft 6s 5s 18 20 mph 1027.3mb 69f 66f
2:50am 4.5ft 6s 5s 18 20 mph 1027.6mb 69f 66f
1:50am 4.5ft 5s 5s 18 20 mph 1027.7mb 69f 65f
12:50am 4.5ft 6s 5s 16 20 mph 1027.8mb 69f 65f
Wed 03/25 11:50pm 4.5ft 6s 5s 18 22 mph 1027.2mb 69f 65f
10:50pm 4.5ft 6s 5s 18 20 mph 1026.9mb 69f 65f
9:50pm 5ft 8s 5s 16 20 mph 1026.7mb 69f 65f
8:50pm 4.5ft 7s 5s 18 20 mph 1026.1mb 69f 66f
7:50pm 4.5ft 8s 5s 18 22 mph 1026.1mb 69f 65f
6:50pm 5ft 8s 5s 18 22 mph 1025.9mb 69f 65f
5:50pm 5ft 8s 5s 18 22 mph 1026.3mb 69f 65f
4:50pm 5ft 9s 5s 18 22 mph 1026.7mb 69f 65f
3:50pm 4.5ft 8s 5s 18 22 mph 1026.8mb 69f 65f
2:50pm 5ft 9s 5s 18 22 mph 1027.1mb 69f 65f
1:50pm 4.5ft 10s 6s 18 22 mph 1026.7mb 69f 65f
12:50pm 4.5ft 9s 6s 16 20 mph 1026.2mb 69f 65f
11:50am 5ft 8s 6s 13 18 mph 1025.7mb 69f 65f
10:50am 4.5ft 8s 6s 13 16 mph 1024.7mb 69f 64f
9:50am 5ft 8s 6s 13 16 mph 1024.3mb 69f 64f
8:50am 5ft 9s 6s 11 13 mph 1023.8mb 69f 64f
7:50am 5ft 8s 6s 13 18 mph 1023.4mb 69f 64f
6:50am 5ft 8s 6s 13 18 mph 1023.4mb 69f 64f
5:50am 5.5ft 7s 6s 13 18 mph 1023.8mb 69f 63f
4:50am 5.5ft 8s 6s 13 18 mph 1023.9mb 69f 63f
3:50am 7ft 9s 6s 13 18 mph 1024.2mb 68f 63f
2:50am 6.5ft 8s 6s 16 20 mph 1024.3mb 68f 63f
1:50am 6.5ft 9s 6s 16 18 mph 1024.3mb 69f 63f
12:50am 6.5ft 7s 6s 13 18 mph 1024mb 69f 64f
Tue 03/24 11:50pm 7.5ft 8s 6s 13 18 mph 1023.1mb 69f 63f
10:50pm 7ft 8s 6s 16 20 mph 1022.2mb 69f 63f
9:50pm 8.5ft 8s 6s 18 22 mph 1021.6mb 69f 64f
8:50pm 8ft 8s 6s 18 22 mph 1021.1mb 68f 64f
7:50pm 9ft 8s 7s 18 20 mph 1021.1mb 68f 64f
6:50pm 9ft 8s 6s 18 22 mph 1021mb 68f 64f
5:50pm 9.5ft 9s 7s 22 27 mph 1020.7mb 68f 64f
4:50pm 8.5ft 9s 6s 22 29 mph 1020.9mb 69f 64f
3:50pm 8.5ft 8s 6s 25 29 mph 1020.6mb 69f 64f
2:50pm 8ft 8s 6s 22 29 mph 1020.3mb 68f 65f
1:50pm 8.5ft 10s 6s 22 27 mph 1019.8mb 69f 65f
12:50pm 9ft 9s 7s 22 29 mph 1019.1mb 68f 64f
11:50am 9ft 10s 6s 25 29 mph 1018mb 68f 64f
10:50am 9ft 9s 7s 20 25 mph 1017.2mb 68f 64f
9:50am 9.5ft 10s 7s 20 25 mph 1016.4mb 68f 65f
8:50am 10ft 10s 7s 22 27 mph 1015.5mb 68f 64f
7:50am 10ft 9s 6s 25 29 mph 1014.9mb 69f 64f
6:50am 10ft 9s 6s 27 31 mph 1014.6mb 68f 63f
5:50am 10ft 8s 6s 27 31 mph 1014.6mb 69f 63f
4:50am 9ft 8s 6s 27 34 mph 1013.8mb 69f 63f
3:50am 7.5ft 7s 6s 25 29 mph 1013.2mb 69f 64f
2:50am 7ft 8s 6s 25 29 mph 1013.2mb 69f 64f
1:50am 6ft 6s 5s 20 25 mph 1012.9mb 69f 65f
12:50am 6ft 5s 5s 22 27 mph 1011.3mb 69f 65f
Mon 03/23 11:50pm 5.5ft 5s 5s 18 22 mph 1010.6mb 69f 66f
10:50pm 5.5ft 6s 5s 18 22 mph 1009.9mb 69f 65f
9:50pm 5ft 5s 5s 13 20 mph 1010.6mb 69f 65f
8:50pm 5ft 6s 5s 25 29 mph 1009.6mb 69f 64f
7:50pm 5ft 5s 5s 25 29 mph 1009.6mb 69f 64f
6:50pm 4.5ft 5s 5s 25 29 mph 1009.9mb 69f 64f
5:50pm 3.5ft 8s 5s 20 22 mph 1010.3mb 69f 65f